createdAt,value
2022-12-11T00:07:15.769Z,90
2022-12-11T00:27:18.855Z,90
2022-12-11T00:37:20.669Z,90
2022-12-11T00:47:22.367Z,90
2022-12-11T00:57:23.655Z,90
2022-12-11T01:07:25.022Z,90
2022-12-11T01:17:26.762Z,90
2022-12-11T01:27:28.803Z,90
2022-12-11T01:37:30.612Z,90
2022-12-11T01:47:32.185Z,91
2022-12-11T01:57:33.952Z,91
2022-12-11T02:07:35.733Z,91
2022-12-11T02:17:37.367Z,91
2022-12-11T02:27:38.798Z,92
2022-12-11T02:37:39.905Z,92
2022-12-11T02:47:41.513Z,92
2022-12-11T03:07:43.957Z,91
2022-12-11T03:17:45.238Z,91
2022-12-11T03:27:47.024Z,91
2022-12-11T03:37:48.705Z,91
2022-12-11T03:47:50.420Z,91
2022-12-11T03:57:52.393Z,90
2022-12-11T04:07:54.661Z,90
2022-12-11T04:17:56.149Z,90
2022-12-11T04:27:57.980Z,90
2022-12-11T04:37:59.898Z,90
2022-12-11T04:48:01.053Z,89
2022-12-11T04:58:02.721Z,89
2022-12-11T05:08:04.228Z,89
2022-12-11T05:18:05.938Z,89
2022-12-11T05:28:07.894Z,89
2022-12-11T05:38:09.366Z,90
2022-12-11T05:48:11.073Z,90
2022-12-11T05:58:12.598Z,90
2022-12-11T06:18:14.797Z,90
2022-12-11T06:28:15.900Z,90
2022-12-11T06:38:17.031Z,90
2022-12-11T07:08:22.355Z,90
2022-12-11T07:18:23.494Z,90
2022-12-11T07:28:25.097Z,90
2022-12-11T07:38:26.642Z,90
2022-12-11T07:48:28.448Z,90
2022-12-11T07:58:29.878Z,90
2022-12-11T08:08:31.329Z,90
2022-12-11T08:18:32.708Z,90
2022-12-11T08:28:34.439Z,90
2022-12-11T08:38:35.774Z,90
2022-12-11T08:48:36.918Z,90
2022-12-11T08:58:38.505Z,90
2022-12-11T09:08:39.793Z,90
2022-12-11T09:18:41.286Z,89
2022-12-11T09:28:46.141Z,89
2022-12-11T09:38:44.705Z,89
2022-12-11T09:48:46.313Z,89
2022-12-11T09:58:48.157Z,88
2022-12-11T10:08:49.338Z,88
2022-12-11T10:28:53.296Z,89
2022-12-11T10:38:54.382Z,89
2022-12-11T10:48:55.678Z,89
2022-12-11T10:58:56.742Z,89
2022-12-11T11:08:58.772Z,89
2022-12-11T11:19:00.373Z,89
2022-12-11T11:29:01.838Z,89
2022-12-11T11:39:02.917Z,88
2022-12-11T11:49:04.343Z,88
2022-12-11T11:59:05.873Z,88
2022-12-11T12:09:06.935Z,88
2022-12-11T12:19:08.927Z,87
2022-12-11T12:29:10.730Z,87
2022-12-11T12:39:12.146Z,87
2022-12-11T12:49:13.437Z,87
2022-12-11T12:59:15.403Z,87
2022-12-11T13:09:16.790Z,85
2022-12-11T13:19:18.045Z,85
2022-12-11T13:29:19.080Z,84
2022-12-11T13:39:20.726Z,83
2022-12-11T13:49:21.874Z,85
2022-12-11T13:59:23.137Z,84
2022-12-11T14:09:24.706Z,84
2022-12-11T14:19:26.462Z,83
2022-12-11T14:29:27.688Z,84
2022-12-11T14:39:29.188Z,84
2022-12-11T14:49:30.478Z,84
2022-12-11T14:59:32.609Z,84
2022-12-11T15:09:33.725Z,84
2022-12-11T15:19:35.509Z,84
2022-12-11T15:29:36.753Z,84
2022-12-11T15:39:38.034Z,84
2022-12-11T15:49:39.603Z,84
2022-12-11T15:59:41.308Z,84
2022-12-11T16:09:42.603Z,83
2022-12-11T16:19:43.791Z,84
2022-12-11T16:29:45.472Z,83
2022-12-11T16:39:47.129Z,87
2022-12-11T16:49:48.690Z,86
2022-12-11T16:59:49.913Z,88
2022-12-11T17:09:51.463Z,87
2022-12-11T17:19:53.393Z,87
2022-12-11T17:29:54.542Z,87
2022-12-11T17:39:55.956Z,88
2022-12-11T17:49:57.244Z,87
2022-12-11T17:59:58.725Z,87
2022-12-11T18:10:00.200Z,87
2022-12-11T18:20:01.992Z,87
2022-12-11T18:30:03.771Z,87
2022-12-11T18:40:05.594Z,88
2022-12-11T18:50:08.089Z,88
2022-12-11T19:00:08.654Z,88
2022-12-11T19:10:10.021Z,88
2022-12-11T19:20:40.091Z,88
2022-12-11T19:30:13.453Z,88
2022-12-11T20:10:19.344Z,88
2022-12-11T20:20:20.618Z,90
2022-12-11T20:40:24.132Z,91
2022-12-11T20:50:25.371Z,90
2022-12-11T21:00:26.579Z,90
2022-12-11T21:03:04.955Z,90
2022-12-11T21:10:36.877Z,90
2022-12-11T21:20:38.763Z,90
2022-12-11T21:30:40.327Z,90
2022-12-11T21:50:42.998Z,90
2022-12-11T22:00:44.665Z,90
2022-12-11T22:10:45.725Z,89
2022-12-11T22:20:47.688Z,90
2022-12-11T22:30:49.147Z,89
2022-12-11T22:40:51.045Z,89
2022-12-11T22:50:52.659Z,89
2022-12-11T23:00:54.138Z,89
2022-12-11T23:10:55.191Z,90
2022-12-11T23:20:56.707Z,90
2022-12-11T23:30:58.766Z,90
2022-12-11T23:40:59.972Z,90
2022-12-11T23:51:01.094Z,90
